createdAt,value
2023-05-17T00:01:56.787Z,101264.47
2023-05-17T00:04:28.938Z,101268.41
2023-05-17T00:06:58.513Z,101279.44
2023-05-17T00:09:28.089Z,101274.31
2023-05-17T00:11:57.639Z,101276.56
2023-05-17T00:14:27.221Z,101280.13
2023-05-17T00:16:56.805Z,101275.00
2023-05-17T00:19:29.049Z,101267.06
2023-05-17T00:21:58.917Z,101276.41
2023-05-17T00:24:28.479Z,101286.22
2023-05-17T00:26:59.260Z,101288.56
2023-05-17T00:29:28.843Z,101290.47
2023-05-17T00:31:58.409Z,101286.00
2023-05-17T00:34:30.559Z,101289.81
2023-05-17T00:37:00.092Z,101297.63
2023-05-17T00:39:29.603Z,101293.28
2023-05-17T00:41:59.194Z,101295.63
2023-05-17T00:44:28.834Z,101287.59
2023-05-17T00:46:59.971Z,101297.28
2023-05-17T00:49:32.300Z,101305.53
2023-05-17T00:52:02.223Z,101312.50
2023-05-17T00:54:31.840Z,101310.72
2023-05-17T00:57:02.308Z,101316.84
2023-05-17T00:59:32.501Z,101320.75
2023-05-17T01:02:02.534Z,101321.75
2023-05-17T01:04:35.222Z,101323.31
2023-05-17T01:07:04.858Z,101324.78
2023-05-17T01:09:34.394Z,101326.25
2023-05-17T01:12:11.252Z,101322.78
2023-05-17T01:14:47.072Z,101328.78
2023-05-17T01:17:20.650Z,101330.34
2023-05-17T01:19:58.517Z,101328.47
2023-05-17T01:22:36.046Z,101330.78
2023-05-17T01:25:18.922Z,101334.94
2023-05-17T01:27:52.364Z,101332.16
2023-05-17T01:30:23.166Z,101348.50
2023-05-17T01:32:53.760Z,101354.31
2023-05-17T01:35:23.405Z,101357.41
2023-05-17T01:37:53.121Z,101353.53
2023-05-17T01:40:22.934Z,101362.19
2023-05-17T01:42:58.760Z,101362.41
2023-05-17T01:45:32.701Z,101359.75
2023-05-17T01:48:10.056Z,101364.41
2023-05-17T01:50:41.445Z,101365.94
2023-05-17T01:53:14.112Z,101366.75
2023-05-17T01:55:46.713Z,101377.28
2023-05-17T01:58:19.340Z,101381.28
2023-05-17T02:00:49.981Z,101377.06
2023-05-17T02:03:20.641Z,101388.63
2023-05-17T02:05:50.446Z,101375.47
2023-05-17T02:08:19.980Z,101378.41
2023-05-17T02:10:49.623Z,101387.59
2023-05-17T02:13:21.951Z,101397.38
2023-05-17T02:15:51.551Z,101398.03
2023-05-17T02:18:22.042Z,101404.59
2023-05-17T02:20:51.761Z,101406.34
2023-05-17T02:23:21.479Z,101406.34
2023-05-17T02:25:51.123Z,101419.66
2023-05-17T02:28:23.303Z,101418.06
2023-05-17T02:30:53.375Z,101421.63
2023-05-17T02:33:23.014Z,101423.72
2023-05-17T02:35:52.773Z,101421.69
2023-05-17T02:38:22.502Z,101420.78
2023-05-17T02:40:52.116Z,101421.09
2023-05-17T02:43:24.208Z,101436.56
2023-05-17T02:45:53.806Z,101439.88
2023-05-17T02:48:23.345Z,101446.06
2023-05-17T02:50:52.974Z,101443.78
2023-05-17T02:53:22.550Z,101444.56
2023-05-17T02:55:52.558Z,101453.72
2023-05-17T02:58:24.703Z,101448.25
2023-05-17T03:00:54.458Z,101453.00
2023-05-17T03:03:24.108Z,101457.09
2023-05-17T03:05:53.756Z,101451.88
2023-05-17T03:08:23.352Z,101451.72
2023-05-17T03:10:52.952Z,101460.69
2023-05-17T03:13:25.112Z,101468.75
2023-05-17T03:15:54.718Z,101483.31
2023-05-17T03:18:24.330Z,101483.72
2023-05-17T03:20:54.116Z,101494.94
2023-05-17T03:23:23.949Z,101499.69
2023-05-17T03:25:53.548Z,101495.00
2023-05-17T03:28:25.652Z,101504.94
2023-05-17T03:30:55.591Z,101523.31
2023-05-17T03:33:25.228Z,101517.84
2023-05-17T03:35:54.873Z,101516.94
2023-05-17T03:38:24.400Z,101526.16
2023-05-17T03:40:54.519Z,101537.91
2023-05-17T03:43:26.687Z,101543.75
2023-05-17T03:45:56.288Z,101533.31
2023-05-17T03:48:25.934Z,101539.97
2023-05-17T03:50:55.832Z,101550.69
2023-05-17T03:53:25.396Z,101558.34
2023-05-17T03:55:54.934Z,101558.97
2023-05-17T03:58:27.074Z,101563.69
2023-05-17T04:00:56.732Z,101566.25
2023-05-17T04:03:26.362Z,101575.69
2023-05-17T04:08:28.595Z,101493.25
2023-05-17T04:10:56.886Z,101493.75
2023-05-17T04:13:25.454Z,101514.44
2023-05-17T04:15:53.723Z,101518.00
2023-05-17T04:18:22.297Z,101527.44
2023-05-17T04:20:50.822Z,101534.59
2023-05-17T04:23:19.115Z,101528.06
2023-05-17T04:25:51.730Z,101519.59
2023-05-17T04:28:22.194Z,101525.22
2023-05-17T04:30:52.350Z,101525.81
2023-05-17T04:33:22.539Z,101528.38
2023-05-17T04:35:53.416Z,101544.38
2023-05-17T04:38:23.799Z,101550.59
2023-05-17T04:40:56.028Z,101569.19
2023-05-17T04:43:25.627Z,101591.84
2023-05-17T04:45:59.508Z,101621.13
2023-05-17T04:48:29.671Z,101672.28
2023-05-17T04:50:59.386Z,101762.06
2023-05-17T04:53:28.977Z,101835.47
2023-05-17T04:56:01.450Z,101876.34
2023-05-17T04:58:32.073Z,101901.09
2023-05-17T05:01:01.661Z,101926.47
2023-05-17T05:03:31.283Z,101942.09
2023-05-17T05:06:01.012Z,101960.53
2023-05-17T05:08:31.330Z,101973.97
2023-05-17T05:11:03.503Z,101990.81
2023-05-17T05:13:33.130Z,102005.53
2023-05-17T05:16:02.756Z,102018.59
2023-05-17T05:18:32.508Z,102017.31
2023-05-17T05:21:02.522Z,102022.44
2023-05-17T05:23:32.059Z,102031.13
2023-05-17T05:26:04.330Z,102040.06
2023-05-17T05:28:33.932Z,102043.69
2023-05-17T05:31:03.787Z,102048.66
2023-05-17T05:33:33.524Z,102054.69
2023-05-17T05:36:03.202Z,102054.41
2023-05-17T05:38:32.722Z,102057.75
2023-05-17T05:41:04.869Z,102063.25
2023-05-17T05:43:36.279Z,102065.81
2023-05-17T05:46:05.929Z,102076.19
2023-05-17T05:48:39.544Z,102085.41
2023-05-17T05:51:09.288Z,102087.56
2023-05-17T05:53:38.895Z,102103.44
2023-05-17T05:56:11.855Z,102098.72
2023-05-17T05:58:41.368Z,102107.94
2023-05-17T06:01:10.952Z,102120.00
2023-05-17T06:03:40.608Z,102130.75
2023-05-17T06:06:10.578Z,102139.72
2023-05-17T06:08:40.235Z,102148.16
2023-05-17T06:11:12.395Z,102155.84
2023-05-17T06:13:41.991Z,102165.03
2023-05-17T06:16:11.622Z,102163.78
2023-05-17T06:18:41.431Z,102179.03
2023-05-17T06:21:13.562Z,102188.13
2023-05-17T06:23:43.179Z,102187.09
2023-05-17T06:26:15.311Z,102198.38
2023-05-17T06:28:44.841Z,102211.44
2023-05-17T06:31:14.474Z,102217.81
2023-05-17T06:33:44.095Z,102242.03
2023-05-17T06:36:13.758Z,102243.53
2023-05-17T06:38:43.801Z,102248.03
2023-05-17T06:41:15.961Z,102236.38
2023-05-17T06:43:45.585Z,102253.81
2023-05-17T06:46:17.794Z,102272.91
2023-05-17T06:48:50.171Z,102285.22
2023-05-17T06:51:20.619Z,102307.75
2023-05-17T06:53:50.469Z,102315.16
2023-05-17T06:56:22.755Z,102311.19
2023-05-17T06:58:52.281Z,102316.75
2023-05-17T07:01:21.862Z,102331.34
2023-05-17T07:03:51.497Z,102345.69
2023-05-17T07:06:21.449Z,102335.63
2023-05-17T07:08:50.956Z,102345.50
2023-05-17T07:11:23.067Z,102344.50
2023-05-17T07:13:54.279Z,102356.28
2023-05-17T07:16:24.258Z,102352.81
2023-05-17T07:18:53.890Z,102346.03
2023-05-17T07:21:23.987Z,102342.94
2023-05-17T07:23:53.640Z,102347.44
2023-05-17T07:26:25.817Z,102345.13
2023-05-17T07:28:55.466Z,102352.72
2023-05-17T07:31:25.024Z,102343.63
2023-05-17T07:33:55.322Z,102332.47
2023-05-17T07:36:27.562Z,102332.47
2023-05-17T07:38:57.561Z,102336.44
2023-05-17T07:41:29.722Z,102358.59
2023-05-17T07:43:59.445Z,102356.94
2023-05-17T07:46:31.973Z,102356.19
2023-05-17T07:49:01.674Z,102359.31
2023-05-17T07:51:31.775Z,102371.66
2023-05-17T07:54:03.365Z,102377.25
2023-05-17T07:56:35.524Z,102394.53
2023-05-17T07:59:05.020Z,102387.19
2023-05-17T08:01:34.791Z,102397.47
2023-05-17T08:04:04.638Z,102403.13
2023-05-17T08:06:34.283Z,102403.00
2023-05-17T08:09:06.803Z,102417.97
2023-05-17T08:11:45.933Z,102420.63
2023-05-17T08:14:16.774Z,102426.22
2023-05-17T08:16:51.706Z,102427.69
2023-05-17T08:19:21.549Z,102437.13
2023-05-17T08:21:51.270Z,102443.16
2023-05-17T08:24:21.072Z,102437.72
2023-05-17T08:26:53.229Z,102454.50
2023-05-17T08:29:22.813Z,102469.88
2023-05-17T08:31:54.457Z,102466.22
2023-05-17T08:34:24.035Z,102473.53
2023-05-17T08:36:54.248Z,102498.00
2023-05-17T08:39:23.976Z,102496.00
2023-05-17T08:41:59.593Z,102491.00
2023-05-17T08:44:30.824Z,102486.78
2023-05-17T08:47:01.336Z,102492.28
2023-05-17T08:49:33.344Z,102488.19
2023-05-17T08:52:09.886Z,102504.03
2023-05-17T08:54:39.586Z,102490.19
2023-05-17T08:57:14.084Z,102493.84
2023-05-17T08:59:44.070Z,102503.34
2023-05-17T09:02:14.153Z,102517.94
2023-05-17T09:04:44.135Z,102506.84
2023-05-17T09:07:15.239Z,102515.78
2023-05-17T09:09:46.238Z,102515.44
2023-05-17T09:12:18.363Z,102519.94
2023-05-17T09:14:47.907Z,102533.91
2023-05-17T09:17:17.885Z,102534.09
2023-05-17T09:19:48.392Z,102533.38
2023-05-17T09:22:20.390Z,102543.09
2023-05-17T09:24:50.006Z,102529.66
2023-05-17T09:27:22.561Z,102535.31
2023-05-17T09:29:52.098Z,102540.44
2023-05-17T09:32:22.631Z,102530.03
2023-05-17T09:34:52.748Z,102521.06
2023-05-17T09:37:22.944Z,102518.31
2023-05-17T09:39:52.602Z,102527.03
2023-05-17T09:42:28.853Z,102522.00
2023-05-17T09:45:01.778Z,102530.81
2023-05-17T09:47:34.281Z,102544.94
2023-05-17T09:50:04.953Z,102543.53
2023-05-17T09:52:35.396Z,102526.50
2023-05-17T09:55:04.950Z,102503.06
2023-05-17T09:57:42.923Z,102507.13
2023-05-17T10:00:13.751Z,102471.22
2023-05-17T10:02:44.057Z,102439.88
2023-05-17T10:05:15.517Z,102483.78
2023-05-17T10:07:45.217Z,102492.09
2023-05-17T10:10:15.267Z,102484.66
2023-05-17T10:12:47.575Z,102493.94
2023-05-17T10:15:19.025Z,102494.59
2023-05-17T10:17:49.825Z,102498.13
2023-05-17T10:20:20.079Z,102495.59
2023-05-17T10:22:50.030Z,102510.16
2023-05-17T10:25:19.862Z,102533.78
2023-05-17T10:27:52.903Z,102535.91
2023-05-17T10:30:22.907Z,102560.25
2023-05-17T10:32:53.287Z,102558.91
2023-05-17T10:35:24.090Z,102570.22
2023-05-17T10:37:53.651Z,102551.97
2023-05-17T10:40:25.019Z,102564.28
2023-05-17T10:42:59.266Z,102580.66
2023-05-17T10:45:30.036Z,102575.28
2023-05-17T10:48:01.235Z,102551.94
2023-05-17T10:50:31.388Z,102544.63
2023-05-17T10:53:02.363Z,102546.31
2023-05-17T10:55:40.778Z,102565.72
2023-05-17T10:58:23.853Z,102563.19
2023-05-17T11:00:55.613Z,102575.03
2023-05-17T11:03:30.429Z,102597.13
2023-05-17T11:06:24.373Z,102611.28
2023-05-17T11:09:10.846Z,102629.38
2023-05-17T11:11:40.405Z,102637.16
2023-05-17T11:14:13.181Z,102634.28
2023-05-17T11:16:42.736Z,102623.50
2023-05-17T11:19:13.960Z,102616.53
2023-05-17T11:21:50.191Z,102602.63
2023-05-17T11:24:27.330Z,102575.50
2023-05-17T11:26:58.208Z,102578.63
2023-05-17T11:29:34.049Z,102575.66
2023-05-17T11:32:08.979Z,102564.97
2023-05-17T11:34:38.832Z,102571.25
2023-05-17T11:37:13.923Z,102589.66
2023-05-17T11:40:04.306Z,102625.06
2023-05-17T11:42:33.917Z,102619.34
2023-05-17T11:45:07.400Z,102618.22
2023-05-17T11:47:37.632Z,102612.63
2023-05-17T11:50:08.297Z,102618.03
2023-05-17T11:52:37.866Z,102605.28
2023-05-17T11:55:08.111Z,102586.03
2023-05-17T11:57:41.107Z,102547.25
2023-05-17T12:00:16.833Z,102497.75
2023-05-17T12:02:46.421Z,102512.69
2023-05-17T12:05:22.714Z,102520.84
2023-05-17T12:07:52.896Z,102531.09
2023-05-17T12:10:22.629Z,102535.38
2023-05-17T12:12:52.343Z,102549.28
2023-05-17T12:15:24.685Z,102567.66
2023-05-17T12:17:54.659Z,102554.66
2023-05-17T12:20:24.388Z,102522.91
2023-05-17T12:22:55.265Z,102527.59
2023-05-17T12:25:28.155Z,102495.84
2023-05-17T12:27:57.744Z,102485.53
2023-05-17T12:30:30.821Z,102435.19
2023-05-17T12:33:00.739Z,102247.84
2023-05-17T12:35:30.380Z,102115.94
2023-05-17T12:38:00.065Z,102113.34
2023-05-17T12:40:30.075Z,102029.09
2023-05-17T12:43:04.701Z,102014.16
2023-05-17T12:45:37.018Z,101989.53
2023-05-17T12:48:06.970Z,101967.84
2023-05-17T12:50:36.696Z,101995.47
2023-05-17T12:53:10.956Z,101996.56
2023-05-17T12:55:41.055Z,102033.97
2023-05-17T12:58:10.693Z,102088.25
2023-05-17T13:00:43.123Z,102113.94
2023-05-17T13:03:13.167Z,102119.25
2023-05-17T13:05:44.324Z,102108.63
2023-05-17T13:08:24.788Z,102083.69
2023-05-17T13:10:54.376Z,102053.19
2023-05-17T13:13:23.990Z,102036.25
2023-05-17T13:15:56.151Z,102018.63
2023-05-17T13:18:26.112Z,102000.69
2023-05-17T13:20:55.733Z,102035.47
2023-05-17T13:23:25.246Z,102027.50
2023-05-17T13:25:54.870Z,102007.56
2023-05-17T13:28:24.968Z,102012.44
2023-05-17T13:30:57.507Z,102003.56
2023-05-17T13:33:27.970Z,101979.09
2023-05-17T13:35:57.609Z,101944.78
2023-05-17T13:38:27.109Z,101909.16
2023-05-17T13:40:57.057Z,101900.03
2023-05-17T13:43:26.736Z,101903.25
2023-05-17T13:45:59.897Z,101886.66
2023-05-17T13:48:29.558Z,101885.06
2023-05-17T13:51:00.160Z,101884.44
2023-05-17T13:53:29.764Z,101885.53
2023-05-17T13:55:59.283Z,101878.50
2023-05-17T13:58:28.907Z,101899.47
2023-05-17T14:01:01.110Z,101909.34
2023-05-17T14:03:30.902Z,101930.50
2023-05-17T14:06:00.596Z,101930.56
2023-05-17T14:08:30.173Z,101910.78
2023-05-17T14:10:59.793Z,101944.47
2023-05-17T14:13:29.960Z,101958.25
2023-05-17T14:16:02.100Z,101920.75
2023-05-17T14:18:32.668Z,101942.28
2023-05-17T14:21:03.619Z,101940.88
2023-05-17T14:23:34.830Z,101941.78
2023-05-17T14:26:07.435Z,101976.00
2023-05-17T14:28:38.425Z,101961.47
2023-05-17T14:31:11.424Z,101972.53
2023-05-17T14:33:41.397Z,102009.41
2023-05-17T14:36:13.914Z,102015.16
2023-05-17T14:38:43.803Z,102005.03
2023-05-17T14:41:13.397Z,101979.75
2023-05-17T14:43:42.946Z,101975.84
2023-05-17T14:46:15.092Z,101977.66
2023-05-17T14:48:44.647Z,101962.78
2023-05-17T14:51:14.273Z,101967.19
2023-05-17T14:53:43.825Z,101934.88
2023-05-17T14:56:15.362Z,101939.13
2023-05-17T14:58:44.919Z,101952.28
2023-05-17T15:01:17.661Z,101955.47
2023-05-17T15:03:47.452Z,101944.94
2023-05-17T15:06:17.371Z,101969.38
2023-05-17T15:08:46.931Z,101970.38
2023-05-17T15:11:16.509Z,101948.88
2023-05-17T15:13:46.105Z,101940.31
2023-05-17T15:16:18.351Z,101948.16
2023-05-17T15:18:48.566Z,101939.41
2023-05-17T15:21:19.110Z,101928.72
2023-05-17T15:23:51.252Z,101905.31
2023-05-17T15:26:21.510Z,101922.22
2023-05-17T15:28:51.514Z,101926.28
2023-05-17T15:31:24.409Z,101939.28
2023-05-17T15:33:54.051Z,101936.38
2023-05-17T15:36:23.743Z,101927.31
2023-05-17T15:38:53.280Z,101913.34
2023-05-17T15:41:29.829Z,101924.97
2023-05-17T15:43:59.857Z,101930.44
2023-05-17T15:46:32.502Z,101934.69
2023-05-17T15:49:02.141Z,101914.13
2023-05-17T15:51:31.772Z,101915.13
2023-05-17T15:54:01.343Z,101922.50
2023-05-17T15:56:31.107Z,101920.22
2023-05-17T15:59:02.728Z,101923.50
2023-05-17T16:01:35.167Z,101917.97
2023-05-17T16:04:04.771Z,101915.44
2023-05-17T16:06:36.287Z,101912.97
2023-05-17T16:09:05.944Z,101928.31
2023-05-17T16:11:35.533Z,101927.28
2023-05-17T16:14:05.050Z,101948.53
2023-05-17T16:16:37.172Z,101941.78
2023-05-17T16:19:07.119Z,101949.69
2023-05-17T16:21:37.307Z,101971.19
2023-05-17T16:24:07.496Z,101969.44
2023-05-17T16:26:38.589Z,101992.03
2023-05-17T16:29:08.140Z,101965.25
2023-05-17T16:31:40.574Z,101986.38
2023-05-17T16:34:10.102Z,101972.41
2023-05-17T16:36:42.090Z,101963.28
2023-05-17T16:39:11.585Z,101981.91
2023-05-17T16:41:41.141Z,101967.84
2023-05-17T16:44:10.887Z,101959.81
2023-05-17T16:46:43.316Z,101962.69
2023-05-17T16:49:12.904Z,101954.03
2023-05-17T16:51:42.468Z,101956.72
2023-05-17T16:54:11.973Z,101960.09
2023-05-17T16:56:42.214Z,101962.56
2023-05-17T16:59:11.756Z,101961.50
2023-05-17T17:01:44.191Z,101973.56
2023-05-17T17:04:13.784Z,101972.75
2023-05-17T17:06:43.507Z,101972.75
2023-05-17T17:09:13.069Z,101966.38
2023-05-17T17:11:42.925Z,101965.00
2023-05-17T17:14:13.312Z,101975.28
2023-05-17T17:16:45.475Z,101979.97
2023-05-17T17:19:15.108Z,101984.53
2023-05-17T17:21:44.752Z,101999.88
2023-05-17T17:24:14.987Z,102024.72
2023-05-17T17:26:45.205Z,102082.69
2023-05-17T17:29:14.782Z,102139.88
2023-05-17T17:31:46.970Z,102233.22
2023-05-17T17:34:16.501Z,102307.53
2023-05-17T17:36:46.825Z,102393.34
2023-05-17T17:39:17.422Z,102498.41
2023-05-17T17:41:47.003Z,102630.75
2023-05-17T17:44:16.636Z,102664.22
2023-05-17T17:46:48.830Z,102640.34
2023-05-17T17:49:18.678Z,102623.28
2023-05-17T17:51:48.239Z,102640.72
2023-05-17T17:54:17.816Z,102640.06
2023-05-17T17:56:47.495Z,102639.94
2023-05-17T17:59:17.059Z,102641.78
2023-05-17T18:01:49.269Z,102640.97
2023-05-17T18:04:18.858Z,102624.19
2023-05-17T18:06:48.567Z,102574.38
2023-05-17T18:09:18.063Z,102554.03
2023-05-17T18:11:47.640Z,102537.94
2023-05-17T18:14:17.777Z,102525.84
2023-05-17T18:16:49.994Z,102671.94
2023-05-17T18:19:19.688Z,102543.31
2023-05-17T18:21:50.850Z,102562.19
2023-05-17T18:24:20.431Z,102552.22
2023-05-17T18:26:49.985Z,102580.69
2023-05-17T18:29:19.580Z,102496.59
2023-05-17T18:31:52.052Z,102444.59
2023-05-17T18:34:21.872Z,102435.00
2023-05-17T18:36:51.421Z,102449.44
2023-05-17T18:39:21.011Z,102433.09
2023-05-17T18:41:50.561Z,102397.03
2023-05-17T18:44:20.170Z,102409.13
2023-05-17T18:46:53.985Z,102435.63
2023-05-17T18:49:24.010Z,102433.44
2023-05-17T18:51:53.566Z,102451.13
2023-05-17T18:54:23.590Z,102453.84
2023-05-17T18:56:53.230Z,102489.34
2023-05-17T18:59:22.808Z,102546.19
2023-05-17T19:01:54.903Z,102569.63
2023-05-17T19:04:24.517Z,102613.84
2023-05-17T19:06:54.192Z,102650.72
2023-05-17T19:09:23.750Z,102665.63
2023-05-17T19:11:53.307Z,102712.03
2023-05-17T19:14:22.852Z,102688.03
2023-05-17T19:16:57.167Z,102719.88
2023-05-17T19:19:27.076Z,102721.44
2023-05-17T19:21:56.685Z,102725.41
2023-05-17T19:24:26.256Z,102686.75
2023-05-17T19:26:55.858Z,102702.66
2023-05-17T19:29:27.356Z,102662.31
2023-05-17T19:31:59.578Z,102609.63
2023-05-17T19:34:29.186Z,102571.22
2023-05-17T19:36:58.948Z,102551.06
2023-05-17T19:39:28.480Z,102550.00
2023-05-17T19:41:58.869Z,102529.16
2023-05-17T19:44:28.701Z,102537.94
2023-05-17T19:47:00.805Z,102536.50
2023-05-17T19:49:30.608Z,102550.00
2023-05-17T19:52:00.944Z,102540.78
2023-05-17T19:54:31.137Z,102558.50
2023-05-17T19:57:02.316Z,102579.31
2023-05-17T19:59:31.951Z,102589.34
2023-05-17T20:02:04.122Z,102593.19
2023-05-17T20:04:33.716Z,102630.47
2023-05-17T20:07:03.300Z,102648.47
2023-05-17T20:09:32.918Z,102666.41
2023-05-17T20:12:02.644Z,102662.84
2023-05-17T20:14:32.206Z,102653.56
2023-05-17T20:17:04.437Z,102677.72
2023-05-17T20:19:34.055Z,102681.31
2023-05-17T20:22:04.239Z,102693.53
2023-05-17T20:24:35.013Z,102709.34
2023-05-17T20:27:04.834Z,102715.50
2023-05-17T20:29:34.455Z,102749.00
2023-05-17T20:32:07.107Z,102792.84
2023-05-17T20:34:37.012Z,102789.78
2023-05-17T20:37:06.834Z,102783.88
2023-05-17T20:39:36.399Z,102763.94
2023-05-17T20:42:07.904Z,102780.41
2023-05-17T20:44:37.494Z,102768.47
2023-05-17T20:47:09.932Z,102792.63
2023-05-17T20:49:39.457Z,102794.53
2023-05-17T20:52:09.342Z,102773.97
2023-05-17T20:54:39.273Z,102759.16
2023-05-17T20:57:09.300Z,102764.03
2023-05-17T20:59:39.499Z,102727.97
2023-05-17T21:02:11.663Z,102707.16
2023-05-17T21:04:41.509Z,102727.28
2023-05-17T21:07:11.054Z,102726.00
2023-05-17T21:09:40.567Z,102696.72
2023-05-17T21:12:10.576Z,102718.56
2023-05-17T21:14:40.117Z,102689.94
2023-05-17T21:17:12.757Z,102680.88
2023-05-17T21:19:42.304Z,102656.38
2023-05-17T21:22:11.960Z,102665.22
2023-05-17T21:24:41.489Z,102662.13
2023-05-17T21:27:11.128Z,102662.91
2023-05-17T21:29:40.649Z,102656.78
2023-05-17T21:32:13.216Z,102680.16
2023-05-17T21:34:44.776Z,102638.91
2023-05-17T21:37:14.579Z,102584.22
2023-05-17T21:39:44.287Z,102551.09
2023-05-17T21:42:13.934Z,102511.53
2023-05-17T21:44:43.486Z,102523.13
2023-05-17T21:47:15.692Z,102567.78
2023-05-17T21:49:45.276Z,102535.41
2023-05-17T21:52:14.823Z,102526.44
2023-05-17T21:54:44.393Z,102509.00
2023-05-17T21:57:14.361Z,102514.34
2023-05-17T21:59:43.885Z,102511.56
2023-05-17T22:02:16.055Z,102521.28
2023-05-17T22:04:45.655Z,102512.97
2023-05-17T22:07:15.738Z,102554.06
2023-05-17T22:09:45.605Z,102539.28
2023-05-17T22:12:15.268Z,102530.81
2023-05-17T22:14:45.629Z,102539.28
2023-05-17T22:17:17.775Z,102551.09
2023-05-17T22:19:47.492Z,102518.25
2023-05-17T22:22:18.307Z,102533.50
2023-05-17T22:24:47.907Z,102531.69
2023-05-17T22:27:17.463Z,102523.59
2023-05-17T22:29:47.145Z,102516.41
2023-05-17T22:32:19.309Z,102539.38
2023-05-17T22:34:49.255Z,102549.53
2023-05-17T22:37:22.834Z,102567.25
2023-05-17T22:39:52.647Z,102558.03
2023-05-17T22:42:22.231Z,102543.88
2023-05-17T22:44:51.859Z,102567.78
2023-05-17T22:47:26.934Z,102553.34
2023-05-17T22:49:57.845Z,102566.44
2023-05-17T22:52:27.397Z,102567.19
2023-05-17T22:54:56.980Z,102556.16
2023-05-17T22:57:26.630Z,102584.97
2023-05-17T22:59:56.126Z,102597.94
2023-05-17T23:02:29.150Z,102566.97
2023-05-17T23:04:58.702Z,102588.03
2023-05-17T23:07:28.286Z,102552.22
2023-05-17T23:09:58.213Z,102582.09
2023-05-17T23:12:28.318Z,102581.41
2023-05-17T23:14:58.074Z,102622.88
2023-05-17T23:17:34.134Z,102597.00
2023-05-17T23:20:08.271Z,102569.56
2023-05-17T23:22:37.912Z,102530.00
2023-05-17T23:25:08.298Z,102518.94
2023-05-17T23:27:38.230Z,102517.16
2023-05-17T23:30:09.461Z,102542.13
2023-05-17T23:32:42.605Z,102561.78
2023-05-17T23:35:12.514Z,102549.00
2023-05-17T23:37:42.285Z,102578.84
2023-05-17T23:40:15.045Z,102595.78
2023-05-17T23:42:45.079Z,102614.19
2023-05-17T23:45:17.785Z,102631.66
2023-05-17T23:47:50.252Z,102639.53
2023-05-17T23:50:19.857Z,102630.59
2023-05-17T23:52:49.480Z,102667.16
2023-05-17T23:55:20.311Z,102671.34
2023-05-17T23:57:50.904Z,102694.44
